Ouargla, Algeria
Current Conditions -  °F | °C
As of 1:00 AM on Saturday 29 Nov 2014 (Local Time) from DAUU Reporting Station
Scattered Clouds Scattered Clouds  
Wind Chill: 68°   Ceiling: Unl
Heat Index: 68°   Visibility: 4mi
Dew Point: 41°   Wind: 16mph
Humidity: 37%   Direction: 180°S
Pressure: 29.71"   Gusts: NA
Location:  31.92°N, 5.4°E
Report Text: DAUU 290000Z 18014KT 6000 FEW046 SCT100 20/05 Q1006
Loading
Personal Weather Stations






























Interactive Weather Map New forecast layout! Learn more

10-Day Weather Forecast

Advertisements
Track Severe Weather on mobile